createdAt,value
2023-05-15T19:01:08.107Z,57.40
2023-05-15T19:06:17.706Z,56.97
2023-05-15T19:11:24.708Z,57.37
2023-05-15T19:16:34.327Z,57.23
2023-05-15T19:21:41.766Z,57.43
2023-05-15T19:26:48.802Z,57.13
2023-05-15T19:31:55.704Z,58.17
2023-05-15T19:37:02.931Z,58.73
2023-05-15T19:42:10.131Z,59.47
2023-05-15T19:47:16.924Z,59.67
2023-05-15T19:52:25.046Z,59.57
2023-05-15T19:57:32.285Z,60.03
2023-05-15T20:02:41.949Z,60.08
2023-05-15T20:07:50.162Z,60.10
2023-05-15T20:12:58.860Z,59.60
2023-05-15T20:18:06.661Z,58.87
2023-05-15T20:23:14.049Z,59.23
2023-05-15T20:28:22.717Z,58.90
2023-05-15T20:33:31.038Z,59.53
2023-05-15T20:38:39.734Z,58.42
2023-05-15T20:43:47.526Z,58.13
2023-05-15T20:48:56.200Z,57.73
2023-05-15T20:54:05.239Z,58.17
2023-05-15T20:59:12.274Z,57.77
2023-05-15T21:04:19.349Z,58.80
2023-05-15T21:09:28.901Z,58.70
2023-05-15T21:14:36.563Z,57.00
2023-05-15T21:19:44.049Z,58.50
2023-05-15T21:24:51.196Z,57.27
2023-05-15T21:29:58.926Z,57.67
2023-05-15T21:35:05.838Z,57.93
2023-05-15T21:40:14.066Z,57.87
2023-05-15T21:45:21.223Z,58.30
2023-05-15T21:50:29.880Z,58.07
2023-05-15T21:55:41.130Z,57.60
2023-05-15T22:00:49.237Z,56.33
2023-05-15T22:05:57.490Z,57.30
2023-05-15T22:11:04.374Z,57.00
2023-05-15T22:16:11.661Z,57.30
2023-05-15T22:21:19.552Z,56.87
2023-05-15T22:26:26.942Z,56.53
2023-05-15T22:31:34.045Z,56.17
2023-05-15T22:36:41.440Z,55.23
2023-05-15T22:41:48.460Z,56.07
2023-05-15T22:46:56.563Z,56.73
2023-05-15T22:52:03.670Z,57.70
2023-05-15T22:57:11.067Z,58.47
2023-05-15T23:02:18.377Z,58.40
2023-05-15T23:07:27.073Z,60.28
2023-05-15T23:12:33.860Z,58.95
2023-05-15T23:17:41.497Z,54.42
2023-05-15T23:22:49.507Z,54.20
2023-05-15T23:27:56.753Z,53.93
2023-05-15T23:33:03.655Z,53.93
2023-05-15T23:38:12.425Z,54.47
2023-05-15T23:43:20.125Z,53.67
2023-05-15T23:48:26.938Z,53.00
2023-05-15T23:53:38.437Z,52.95
2023-05-15T23:58:45.252Z,52.78
